This is the latest recevied weather packets stored in our database for station/object K7GFH-13. If no packets are shown the sender has not sent any weather packets the latest 10 day(s).
| Time | Temp. | Humidity | Pressure | Rain* | Wind** | Luminosity | Snow |
|---|---|---|---|---|---|---|---|
| 1777390351 | 9.44° C | 86% | 1025 hPa | 0 mm | - | 71 W/m² | - |
| 1777389446 | 8.89° C | 87% | 1025.1 hPa | 0 mm | - | 80 W/m² | - |
| 1777386742 | 8.89° C | 88% | 1024.6 hPa | 0 mm | - | 29 W/m² | - |
| 1777385838 | 8.89° C | 89% | 1024.6 hPa | 0 mm | - | 35 W/m² | - |
| 1777384934 | 8.89° C | 88% | 1024.3 hPa | 0 mm | - | 16 W/m² | - |
| 1777383133 | 8.33° C | 88% | 1024 hPa | 0 mm | - | 6 W/m² | - |
| 1777382234 | 8.33° C | 90% | 1023.9 hPa | 0 mm | - | 3 W/m² | - |
| 1777380427 | 8.33° C | 88% | 1023.5 hPa | 0 mm | - | 0 W/m² | - |
| 1777378620 | 8.89° C | 84% | 1023.4 hPa | 0 mm | - | 0 W/m² | - |
| 1777377715 | 8.89° C | 84% | 1023.5 hPa | 0 mm | - | 0 W/m² | - |
| 1777375910 | 8.89° C | 83% | 1023.4 hPa | 0 mm | - | 0 W/m² | - |
| 1777375008 | 8.89° C | 83% | 1023.5 hPa | 0 mm | - | 0 W/m² | - |
| 1777372299 | 8.89° C | 83% | 1023.1 hPa | 0 mm | - | 0 W/m² | - |
| 1777371397 | 9.44° C | 85% | 1023.2 hPa | 0 mm | - | 0 W/m² | - |
| 1777370497 | 9.44° C | 85% | 1023.1 hPa | 0 mm | - | 0 W/m² | - |
| 1777368693 | 9.44° C | 84% | 1023.1 hPa | 0 mm | - | 0 W/m² | - |
| 1777367787 | 9.44° C | 83% | 1023.2 hPa | 0 mm | - | 0 W/m² | - |
| 1777366885 | 9.44° C | 83% | 1023.1 hPa | 0 mm | - | 0 W/m² | - |
| 1777365981 | 10° C | 82% | 1023 hPa | 0 mm | - | 0 W/m² | - |
| 1777365076 | 10° C | 81% | 1023.1 hPa | 0 mm | - | 0 W/m² | - |
| 1777364175 | 10° C | 81% | 1022.8 hPa | 0 mm | - | 0 W/m² | - |
| 1777363270 | 10° C | 81% | 1023 hPa | 0 mm | - | 0 W/m² | - |
| 1777362369 | 10.56° C | 80% | 1022.8 hPa | 0 mm | - | 0 W/m² | - |
| 1777361465 | 10.56° C | 80% | 1022.6 hPa | 0 mm | - | 0 W/m² | - |
| 1777360564 | 10.56° C | 80% | 1022.6 hPa | 0 mm | - | 0 W/m² | - |
* Rain latest hour (hover to see other rain measurements)
** Current wind speed in m/s (hover to see current wind gust speed)